sensor_id;sensor_type;location;lat;lon;timestamp;P1;durP1;ratioP1;P2;durP2;ratioP2
76053;SDS011;64752;48.870;9.082;2023-03-23T00:01:13;1.58;;;1.08;;
76053;SDS011;64752;48.870;9.082;2023-03-23T00:03:40;3.03;;;1.10;;
76053;SDS011;64752;48.870;9.082;2023-03-23T00:06:08;2.13;;;1.13;;
76053;SDS011;64752;48.870;9.082;2023-03-23T00:08:35;1.35;;;1.02;;
76053;SDS011;64752;48.870;9.082;2023-03-23T00:11:05;1.20;;;0.98;;
76053;SDS011;64752;48.870;9.082;2023-03-23T00:13:32;1.88;;;1.40;;
76053;SDS011;64752;48.870;9.082;2023-03-23T00:15:58;1.52;;;1.13;;
76053;SDS011;64752;48.870;9.082;2023-03-23T00:18:23;1.73;;;1.05;;
76053;SDS011;64752;48.870;9.082;2023-03-23T00:20:50;2.92;;;1.35;;
76053;SDS011;64752;48.870;9.082;2023-03-23T00:23:17;1.60;;;1.00;;
76053;SDS011;64752;48.870;9.082;2023-03-23T00:25:45;1.65;;;1.15;;
76053;SDS011;64752;48.870;9.082;2023-03-23T00:28:12;2.40;;;1.30;;
76053;SDS011;64752;48.870;9.082;2023-03-23T00:30:39;2.25;;;1.10;;
76053;SDS011;64752;48.870;9.082;2023-03-23T00:33:06;2.10;;;1.10;;
76053;SDS011;64752;48.870;9.082;2023-03-23T00:35:32;1.90;;;1.10;;
76053;SDS011;64752;48.870;9.082;2023-03-23T00:40:25;2.08;;;1.20;;
76053;SDS011;64752;48.870;9.082;2023-03-23T00:42:51;3.85;;;0.90;;
76053;SDS011;64752;48.870;9.082;2023-03-23T00:45:16;1.90;;;1.23;;
76053;SDS011;64752;48.870;9.082;2023-03-23T00:47:42;1.30;;;1.10;;
76053;SDS011;64752;48.870;9.082;2023-03-23T00:50:11;2.17;;;1.20;;
76053;SDS011;64752;48.870;9.082;2023-03-23T00:52:38;2.03;;;1.20;;
76053;SDS011;64752;48.870;9.082;2023-03-23T00:55:05;2.70;;;0.98;;
76053;SDS011;64752;48.870;9.082;2023-03-23T00:57:31;2.07;;;1.30;;
76053;SDS011;64752;48.870;9.082;2023-03-23T00:59:56;1.58;;;1.20;;
76053;SDS011;64752;48.870;9.082;2023-03-23T01:02:22;1.58;;;1.10;;
76053;SDS011;64752;48.870;9.082;2023-03-23T01:07:17;2.25;;;1.30;;
76053;SDS011;64752;48.870;9.082;2023-03-23T01:09:46;1.98;;;1.20;;
76053;SDS011;64752;48.870;9.082;2023-03-23T01:12:13;4.53;;;1.30;;
76053;SDS011;64752;48.870;9.082;2023-03-23T01:14:39;2.92;;;0.90;;
76053;SDS011;64752;48.870;9.082;2023-03-23T01:17:08;1.73;;;1.10;;
76053;SDS011;64752;48.870;9.082;2023-03-23T01:19:33;1.80;;;1.23;;
76053;SDS011;64752;48.870;9.082;2023-03-23T01:21:58;1.88;;;1.00;;
76053;SDS011;64752;48.870;9.082;2023-03-23T01:24:24;2.97;;;1.37;;
76053;SDS011;64752;48.870;9.082;2023-03-23T01:26:49;2.28;;;1.17;;
76053;SDS011;64752;48.870;9.082;2023-03-23T01:29:15;2.70;;;1.17;;
76053;SDS011;64752;48.870;9.082;2023-03-23T01:31:40;3.42;;;1.30;;
76053;SDS011;64752;48.870;9.082;2023-03-23T01:34:07;2.33;;;1.08;;
76053;SDS011;64752;48.870;9.082;2023-03-23T01:36:33;1.80;;;1.27;;
76053;SDS011;64752;48.870;9.082;2023-03-23T01:38:59;1.88;;;1.30;;
76053;SDS011;64752;48.870;9.082;2023-03-23T01:41:28;1.52;;;1.20;;
76053;SDS011;64752;48.870;9.082;2023-03-23T01:43:54;3.10;;;1.30;;
76053;SDS011;64752;48.870;9.082;2023-03-23T01:46:21;2.45;;;1.40;;
76053;SDS011;64752;48.870;9.082;2023-03-23T01:48:49;3.10;;;1.52;;
76053;SDS011;64752;48.870;9.082;2023-03-23T01:51:15;3.55;;;1.50;;
76053;SDS011;64752;48.870;9.082;2023-03-23T01:54:02;2.20;;;1.10;;
76053;SDS011;64752;48.870;9.082;2023-03-23T01:56:34;3.13;;;1.35;;
76053;SDS011;64752;48.870;9.082;2023-03-23T01:59:06;4.45;;;1.70;;
76053;SDS011;64752;48.870;9.082;2023-03-23T02:01:33;1.25;;;1.02;;
76053;SDS011;64752;48.870;9.082;2023-03-23T02:04:03;2.17;;;1.40;;
76053;SDS011;64752;48.870;9.082;2023-03-23T02:06:30;1.98;;;1.35;;
76053;SDS011;64752;48.870;9.082;2023-03-23T02:08:56;2.13;;;1.25;;
76053;SDS011;64752;48.870;9.082;2023-03-23T02:11:22;3.97;;;1.48;;
76053;SDS011;64752;48.870;9.082;2023-03-23T02:13:48;4.80;;;1.38;;
76053;SDS011;64752;48.870;9.082;2023-03-23T02:18:58;2.08;;;1.20;;
76053;SDS011;64752;48.870;9.082;2023-03-23T02:38:38;5.32;;;1.38;;
76053;SDS011;64752;48.870;9.082;2023-03-23T02:41:10;2.28;;;1.30;;
76053;SDS011;64752;48.870;9.082;2023-03-23T02:43:38;2.28;;;1.48;;
76053;SDS011;64752;48.870;9.082;2023-03-23T02:46:08;2.97;;;1.77;;
76053;SDS011;64752;48.870;9.082;2023-03-23T02:48:35;3.33;;;1.35;;
76053;SDS011;64752;48.870;9.082;2023-03-23T02:51:03;3.00;;;1.90;;
76053;SDS011;64752;48.870;9.082;2023-03-23T02:53:31;2.83;;;1.45;;
76053;SDS011;64752;48.870;9.082;2023-03-23T02:55:59;2.88;;;1.67;;
76053;SDS011;64752;48.870;9.082;2023-03-23T02:58:27;4.57;;;1.50;;
76053;SDS011;64752;48.870;9.082;2023-03-23T03:00:53;2.50;;;1.50;;
76053;SDS011;64752;48.870;9.082;2023-03-23T03:03:22;3.42;;;1.65;;
76053;SDS011;64752;48.870;9.082;2023-03-23T03:08:49;7.25;;;1.70;;
76053;SDS011;64752;48.870;9.082;2023-03-23T03:11:19;3.53;;;1.60;;
76053;SDS011;64752;48.870;9.082;2023-03-23T03:14:01;4.60;;;1.50;;
76053;SDS011;64752;48.870;9.082;2023-03-23T03:19:26;2.85;;;1.58;;
76053;SDS011;64752;48.870;9.082;2023-03-23T03:21:54;2.70;;;1.58;;
76053;SDS011;64752;48.870;9.082;2023-03-23T03:24:22;3.72;;;1.55;;
76053;SDS011;64752;48.870;9.082;2023-03-23T03:26:51;3.70;;;1.40;;
76053;SDS011;64752;48.870;9.082;2023-03-23T03:29:22;2.47;;;1.63;;
76053;SDS011;64752;48.870;9.082;2023-03-23T03:31:50;3.03;;;1.50;;
76053;SDS011;64752;48.870;9.082;2023-03-23T03:34:20;2.00;;;1.50;;
76053;SDS011;64752;48.870;9.082;2023-03-23T03:36:46;2.10;;;1.48;;
76053;SDS011;64752;48.870;9.082;2023-03-23T03:39:15;2.95;;;1.38;;
76053;SDS011;64752;48.870;9.082;2023-03-23T03:41:42;3.10;;;1.30;;
76053;SDS011;64752;48.870;9.082;2023-03-23T03:44:08;2.37;;;1.50;;
76053;SDS011;64752;48.870;9.082;2023-03-23T03:46:34;3.08;;;1.45;;
76053;SDS011;64752;48.870;9.082;2023-03-23T03:49:01;4.15;;;1.60;;
76053;SDS011;64752;48.870;9.082;2023-03-23T03:51:28;2.10;;;1.33;;
76053;SDS011;64752;48.870;9.082;2023-03-23T03:56:21;2.28;;;1.42;;
76053;SDS011;64752;48.870;9.082;2023-03-23T03:58:48;3.55;;;1.50;;
76053;SDS011;64752;48.870;9.082;2023-03-23T04:03:41;3.45;;;1.60;;
76053;SDS011;64752;48.870;9.082;2023-03-23T04:06:06;3.67;;;1.48;;
76053;SDS011;64752;48.870;9.082;2023-03-23T04:08:37;1.75;;;1.15;;
76053;SDS011;64752;48.870;9.082;2023-03-23T04:11:04;1.48;;;1.30;;
76053;SDS011;64752;48.870;9.082;2023-03-23T04:13:30;3.15;;;1.40;;
76053;SDS011;64752;48.870;9.082;2023-03-23T04:15:55;1.70;;;1.23;;
76053;SDS011;64752;48.870;9.082;2023-03-23T04:18:21;2.42;;;1.45;;
76053;SDS011;64752;48.870;9.082;2023-03-23T04:20:48;4.72;;;1.70;;
76053;SDS011;64752;48.870;9.082;2023-03-23T04:23:15;3.15;;;1.52;;
76053;SDS011;64752;48.870;9.082;2023-03-23T04:25:50;2.40;;;1.33;;
76053;SDS011;64752;48.870;9.082;2023-03-23T04:28:18;2.72;;;1.30;;
76053;SDS011;64752;48.870;9.082;2023-03-23T04:30:44;3.67;;;1.80;;
76053;SDS011;64752;48.870;9.082;2023-03-23T04:33:13;3.60;;;1.77;;
76053;SDS011;64752;48.870;9.082;2023-03-23T04:35:40;2.63;;;1.65;;
76053;SDS011;64752;48.870;9.082;2023-03-23T04:38:07;4.68;;;1.60;;
76053;SDS011;64752;48.870;9.082;2023-03-23T04:40:35;2.65;;;1.40;;
76053;SDS011;64752;48.870;9.082;2023-03-23T04:43:02;3.33;;;1.60;;
76053;SDS011;64752;48.870;9.082;2023-03-23T04:45:31;1.80;;;1.35;;
76053;SDS011;64752;48.870;9.082;2023-03-23T04:47:57;3.90;;;1.42;;
76053;SDS011;64752;48.870;9.082;2023-03-23T04:50:25;6.10;;;1.55;;
76053;SDS011;64752;48.870;9.082;2023-03-23T04:52:58;3.38;;;1.88;;
76053;SDS011;64752;48.870;9.082;2023-03-23T04:55:24;2.40;;;1.27;;
76053;SDS011;64752;48.870;9.082;2023-03-23T05:00:16;4.00;;;1.23;;
76053;SDS011;64752;48.870;9.082;2023-03-23T05:02:43;2.40;;;1.25;;
76053;SDS011;64752;48.870;9.082;2023-03-23T05:05:11;2.75;;;1.38;;
76053;SDS011;64752;48.870;9.082;2023-03-23T05:07:38;2.92;;;1.27;;
76053;SDS011;64752;48.870;9.082;2023-03-23T05:10:04;4.00;;;1.13;;
76053;SDS011;64752;48.870;9.082;2023-03-23T05:12:32;2.60;;;1.30;;
76053;SDS011;64752;48.870;9.082;2023-03-23T05:14:58;4.13;;;1.30;;
76053;SDS011;64752;48.870;9.082;2023-03-23T05:17:24;5.25;;;1.48;;
76053;SDS011;64752;48.870;9.082;2023-03-23T05:19:50;5.20;;;1.40;;
76053;SDS011;64752;48.870;9.082;2023-03-23T05:22:16;2.40;;;1.20;;
76053;SDS011;64752;48.870;9.082;2023-03-23T05:24:41;3.42;;;1.33;;
76053;SDS011;64752;48.870;9.082;2023-03-23T05:27:07;3.58;;;1.35;;
76053;SDS011;64752;48.870;9.082;2023-03-23T05:29:36;2.22;;;1.40;;
76053;SDS011;64752;48.870;9.082;2023-03-23T05:32:03;5.38;;;1.52;;
76053;SDS011;64752;48.870;9.082;2023-03-23T05:34:30;2.35;;;1.50;;
76053;SDS011;64752;48.870;9.082;2023-03-23T05:36:57;3.13;;;1.25;;
76053;SDS011;64752;48.870;9.082;2023-03-23T05:39:23;1.70;;;1.17;;
76053;SDS011;64752;48.870;9.082;2023-03-23T05:41:49;3.45;;;1.70;;
76053;SDS011;64752;48.870;9.082;2023-03-23T05:44:15;3.50;;;1.33;;
76053;SDS011;64752;48.870;9.082;2023-03-23T05:46:41;3.28;;;1.50;;
76053;SDS011;64752;48.870;9.082;2023-03-23T05:49:06;2.17;;;1.17;;
76053;SDS011;64752;48.870;9.082;2023-03-23T05:51:32;3.27;;;1.63;;
76053;SDS011;64752;48.870;9.082;2023-03-23T05:53:58;4.03;;;1.40;;
76053;SDS011;64752;48.870;9.082;2023-03-23T05:56:24;2.00;;;1.48;;
76053;SDS011;64752;48.870;9.082;2023-03-23T05:58:49;3.17;;;1.50;;
76053;SDS011;64752;48.870;9.082;2023-03-23T06:01:15;2.13;;;1.40;;
76053;SDS011;64752;48.870;9.082;2023-03-23T06:03:41;4.35;;;1.67;;
76053;SDS011;64752;48.870;9.082;2023-03-23T06:06:06;2.58;;;1.35;;
76053;SDS011;64752;48.870;9.082;2023-03-23T06:08:35;2.30;;;1.40;;
76053;SDS011;64752;48.870;9.082;2023-03-23T06:13:27;5.93;;;1.40;;
76053;SDS011;64752;48.870;9.082;2023-03-23T06:15:54;3.22;;;1.65;;
76053;SDS011;64752;48.870;9.082;2023-03-23T06:18:22;3.63;;;1.40;;
76053;SDS011;64752;48.870;9.082;2023-03-23T06:20:48;3.78;;;1.67;;
76053;SDS011;64752;48.870;9.082;2023-03-23T06:23:13;2.47;;;1.48;;
76053;SDS011;64752;48.870;9.082;2023-03-23T06:25:39;5.20;;;1.70;;
76053;SDS011;64752;48.870;9.082;2023-03-23T06:28:05;3.25;;;1.42;;
76053;SDS011;64752;48.870;9.082;2023-03-23T06:30:31;3.80;;;1.50;;
76053;SDS011;64752;48.870;9.082;2023-03-23T06:32:56;2.57;;;1.50;;
76053;SDS011;64752;48.870;9.082;2023-03-23T06:35:21;2.17;;;1.30;;
76053;SDS011;64752;48.870;9.082;2023-03-23T06:37:47;3.63;;;1.30;;
76053;SDS011;64752;48.870;9.082;2023-03-23T06:40:12;4.78;;;1.40;;
76053;SDS011;64752;48.870;9.082;2023-03-23T06:42:38;3.97;;;1.90;;
76053;SDS011;64752;48.870;9.082;2023-03-23T06:45:03;3.75;;;1.48;;
76053;SDS011;64752;48.870;9.082;2023-03-23T06:47:29;3.88;;;1.73;;
76053;SDS011;64752;48.870;9.082;2023-03-23T06:49:55;3.13;;;1.57;;
76053;SDS011;64752;48.870;9.082;2023-03-23T06:52:21;4.25;;;1.77;;
76053;SDS011;64752;48.870;9.082;2023-03-23T06:54:48;4.60;;;1.63;;
76053;SDS011;64752;48.870;9.082;2023-03-23T06:57:14;4.95;;;1.65;;
76053;SDS011;64752;48.870;9.082;2023-03-23T06:59:39;2.90;;;1.30;;
76053;SDS011;64752;48.870;9.082;2023-03-23T07:02:07;3.22;;;1.50;;
76053;SDS011;64752;48.870;9.082;2023-03-23T07:04:36;3.67;;;1.23;;
76053;SDS011;64752;48.870;9.082;2023-03-23T07:07:03;3.67;;;1.90;;
76053;SDS011;64752;48.870;9.082;2023-03-23T07:09:29;2.45;;;1.35;;
76053;SDS011;64752;48.870;9.082;2023-03-23T07:11:54;4.37;;;1.23;;
76053;SDS011;64752;48.870;9.082;2023-03-23T07:14:19;5.10;;;1.73;;
76053;SDS011;64752;48.870;9.082;2023-03-23T07:19:12;4.57;;;1.58;;
76053;SDS011;64752;48.870;9.082;2023-03-23T07:21:37;4.13;;;1.40;;
76053;SDS011;64752;48.870;9.082;2023-03-23T07:24:03;4.15;;;1.63;;
76053;SDS011;64752;48.870;9.082;2023-03-23T07:26:28;3.17;;;1.48;;
76053;SDS011;64752;48.870;9.082;2023-03-23T07:28:54;2.35;;;1.30;;
76053;SDS011;64752;48.870;9.082;2023-03-23T07:31:19;3.40;;;1.40;;
76053;SDS011;64752;48.870;9.082;2023-03-23T07:33:45;3.58;;;1.40;;
76053;SDS011;64752;48.870;9.082;2023-03-23T07:36:10;3.53;;;1.70;;
76053;SDS011;64752;48.870;9.082;2023-03-23T07:38:37;3.30;;;1.30;;
76053;SDS011;64752;48.870;9.082;2023-03-23T07:41:02;2.50;;;1.63;;
76053;SDS011;64752;48.870;9.082;2023-03-23T07:43:28;8.73;;;1.77;;
76053;SDS011;64752;48.870;9.082;2023-03-23T07:45:54;3.50;;;1.67;;
76053;SDS011;64752;48.870;9.082;2023-03-23T07:48:19;4.15;;;1.60;;
76053;SDS011;64752;48.870;9.082;2023-03-23T07:50:45;5.70;;;1.53;;
76053;SDS011;64752;48.870;9.082;2023-03-23T07:53:10;3.97;;;1.37;;
76053;SDS011;64752;48.870;9.082;2023-03-23T07:55:36;4.28;;;1.85;;
76053;SDS011;64752;48.870;9.082;2023-03-23T07:58:02;4.43;;;1.77;;
76053;SDS011;64752;48.870;9.082;2023-03-23T08:00:28;2.73;;;1.50;;
76053;SDS011;64752;48.870;9.082;2023-03-23T08:02:55;1.45;;;1.23;;
76053;SDS011;64752;48.870;9.082;2023-03-23T08:05:24;6.22;;;1.70;;
76053;SDS011;64752;48.870;9.082;2023-03-23T08:10:17;2.90;;;1.52;;
76053;SDS011;64752;48.870;9.082;2023-03-23T08:12:42;2.43;;;1.60;;
76053;SDS011;64752;48.870;9.082;2023-03-23T08:15:10;1.80;;;1.45;;
76053;SDS011;64752;48.870;9.082;2023-03-23T08:17:40;3.65;;;2.10;;
76053;SDS011;64752;48.870;9.082;2023-03-23T08:20:06;3.30;;;1.98;;
76053;SDS011;64752;48.870;9.082;2023-03-23T08:22:36;2.38;;;1.60;;
76053;SDS011;64752;48.870;9.082;2023-03-23T08:25:03;2.75;;;1.55;;
76053;SDS011;64752;48.870;9.082;2023-03-23T08:27:29;3.28;;;1.60;;
76053;SDS011;64752;48.870;9.082;2023-03-23T08:29:55;2.87;;;1.47;;
76053;SDS011;64752;48.870;9.082;2023-03-23T08:32:20;4.67;;;1.70;;
76053;SDS011;64752;48.870;9.082;2023-03-23T08:34:45;2.20;;;1.53;;
76053;SDS011;64752;48.870;9.082;2023-03-23T08:37:12;2.70;;;1.80;;
76053;SDS011;64752;48.870;9.082;2023-03-23T08:39:37;5.27;;;1.87;;
76053;SDS011;64752;48.870;9.082;2023-03-23T08:42:03;5.33;;;1.60;;
76053;SDS011;64752;48.870;9.082;2023-03-23T08:44:28;3.87;;;1.70;;
76053;SDS011;64752;48.870;9.082;2023-03-23T08:46:54;3.97;;;1.70;;
76053;SDS011;64752;48.870;9.082;2023-03-23T08:49:22;3.38;;;1.52;;
76053;SDS011;64752;48.870;9.082;2023-03-23T08:51:48;5.55;;;1.60;;
76053;SDS011;64752;48.870;9.082;2023-03-23T08:54:13;8.50;;;1.70;;
76053;SDS011;64752;48.870;9.082;2023-03-23T08:56:39;1.95;;;1.45;;
76053;SDS011;64752;48.870;9.082;2023-03-23T08:59:04;3.47;;;1.73;;
76053;SDS011;64752;48.870;9.082;2023-03-23T09:01:30;2.83;;;1.57;;
76053;SDS011;64752;48.870;9.082;2023-03-23T09:03:55;2.77;;;1.40;;
76053;SDS011;64752;48.870;9.082;2023-03-23T09:06:21;1.77;;;1.20;;
76053;SDS011;64752;48.870;9.082;2023-03-23T09:08:47;2.92;;;1.55;;
76053;SDS011;64752;48.870;9.082;2023-03-23T09:11:13;2.63;;;1.27;;
76053;SDS011;64752;48.870;9.082;2023-03-23T09:13:39;4.97;;;1.50;;
76053;SDS011;64752;48.870;9.082;2023-03-23T09:16:04;3.53;;;1.40;;
76053;SDS011;64752;48.870;9.082;2023-03-23T09:18:31;3.08;;;1.50;;
76053;SDS011;64752;48.870;9.082;2023-03-23T09:20:57;4.57;;;1.40;;
76053;SDS011;64752;48.870;9.082;2023-03-23T09:23:24;3.70;;;1.50;;
76053;SDS011;64752;48.870;9.082;2023-03-23T09:25:49;5.83;;;1.70;;
76053;SDS011;64752;48.870;9.082;2023-03-23T09:28:16;5.07;;;1.60;;
76053;SDS011;64752;48.870;9.082;2023-03-23T09:30:41;2.87;;;1.43;;
76053;SDS011;64752;48.870;9.082;2023-03-23T09:33:09;4.10;;;1.40;;
76053;SDS011;64752;48.870;9.082;2023-03-23T09:35:34;6.50;;;1.50;;
76053;SDS011;64752;48.870;9.082;2023-03-23T09:38:03;3.53;;;1.80;;
76053;SDS011;64752;48.870;9.082;2023-03-23T09:40:31;1.98;;;1.30;;
76053;SDS011;64752;48.870;9.082;2023-03-23T09:53:44;4.13;;;1.60;;
76053;SDS011;64752;48.870;9.082;2023-03-23T09:56:15;2.53;;;1.30;;
76053;SDS011;64752;48.870;9.082;2023-03-23T09:58:51;3.08;;;1.73;;
76053;SDS011;64752;48.870;9.082;2023-03-23T10:04:02;5.18;;;1.67;;
76053;SDS011;64752;48.870;9.082;2023-03-23T10:06:34;1.70;;;1.30;;
76053;SDS011;64752;48.870;9.082;2023-03-23T10:09:01;5.40;;;1.42;;
76053;SDS011;64752;48.870;9.082;2023-03-23T10:11:37;3.42;;;1.50;;
76053;SDS011;64752;48.870;9.082;2023-03-23T10:25:32;1.30;;;0.95;;
76053;SDS011;64752;48.870;9.082;2023-03-23T10:28:09;4.97;;;1.20;;
76053;SDS011;64752;48.870;9.082;2023-03-23T10:30:42;2.58;;;1.30;;
76053;SDS011;64752;48.870;9.082;2023-03-23T10:33:14;2.13;;;1.27;;
76053;SDS011;64752;48.870;9.082;2023-03-23T10:35:48;1.50;;;1.20;;
76053;SDS011;64752;48.870;9.082;2023-03-23T10:41:22;3.35;;;1.10;;
76053;SDS011;64752;48.870;9.082;2023-03-23T10:43:48;2.50;;;1.27;;
76053;SDS011;64752;48.870;9.082;2023-03-23T10:48:53;2.60;;;1.02;;
76053;SDS011;64752;48.870;9.082;2023-03-23T10:51:24;2.38;;;0.95;;
76053;SDS011;64752;48.870;9.082;2023-03-23T10:53:58;1.33;;;1.10;;
76053;SDS011;64752;48.870;9.082;2023-03-23T10:56:27;2.00;;;1.05;;
76053;SDS011;64752;48.870;9.082;2023-03-23T10:58:59;2.45;;;1.10;;
76053;SDS011;64752;48.870;9.082;2023-03-23T11:01:36;1.17;;;1.02;;
76053;SDS011;64752;48.870;9.082;2023-03-23T11:04:01;2.17;;;1.23;;
76053;SDS011;64752;48.870;9.082;2023-03-23T11:06:28;3.53;;;1.20;;
76053;SDS011;64752;48.870;9.082;2023-03-23T11:09:00;3.72;;;1.15;;
76053;SDS011;64752;48.870;9.082;2023-03-23T11:11:37;3.42;;;1.55;;
76053;SDS011;64752;48.870;9.082;2023-03-23T11:16:55;2.05;;;1.00;;
76053;SDS011;64752;48.870;9.082;2023-03-23T11:19:29;2.05;;;0.95;;
76053;SDS011;64752;48.870;9.082;2023-03-23T11:24:36;1.73;;;1.27;;
76053;SDS011;64752;48.870;9.082;2023-03-23T11:27:06;5.18;;;1.38;;
76053;SDS011;64752;48.870;9.082;2023-03-23T11:29:33;2.13;;;1.08;;
76053;SDS011;64752;48.870;9.082;2023-03-23T11:34:47;4.80;;;1.30;;
76053;SDS011;64752;48.870;9.082;2023-03-23T11:37:25;2.85;;;1.15;;
76053;SDS011;64752;48.870;9.082;2023-03-23T11:39:59;2.65;;;1.42;;
76053;SDS011;64752;48.870;9.082;2023-03-23T11:42:26;2.10;;;1.13;;
76053;SDS011;64752;48.870;9.082;2023-03-23T11:45:13;3.20;;;1.38;;
76053;SDS011;64752;48.870;9.082;2023-03-23T11:47:51;2.50;;;1.30;;
76053;SDS011;64752;48.870;9.082;2023-03-23T11:50:24;2.83;;;1.40;;
76053;SDS011;64752;48.870;9.082;2023-03-23T11:53:16;2.05;;;1.27;;
76053;SDS011;64752;48.870;9.082;2023-03-23T11:58:16;3.13;;;1.42;;
76053;SDS011;64752;48.870;9.082;2023-03-23T12:00:51;2.55;;;1.38;;
76053;SDS011;64752;48.870;9.082;2023-03-23T12:03:21;2.70;;;1.55;;
76053;SDS011;64752;48.870;9.082;2023-03-23T12:06:18;2.28;;;1.35;;
76053;SDS011;64752;48.870;9.082;2023-03-23T12:09:04;2.60;;;1.48;;
76053;SDS011;64752;48.870;9.082;2023-03-23T12:17:45;2.17;;;1.60;;
76053;SDS011;64752;48.870;9.082;2023-03-23T12:20:24;2.60;;;1.48;;
76053;SDS011;64752;48.870;9.082;2023-03-23T12:42:14;3.28;;;1.30;;
76053;SDS011;64752;48.870;9.082;2023-03-23T12:44:48;1.92;;;1.27;;
76053;SDS011;64752;48.870;9.082;2023-03-23T12:50:07;2.17;;;1.30;;
76053;SDS011;64752;48.870;9.082;2023-03-23T12:52:45;2.67;;;1.48;;
76053;SDS011;64752;48.870;9.082;2023-03-23T12:55:23;3.50;;;1.50;;
76053;SDS011;64752;48.870;9.082;2023-03-23T12:58:05;3.60;;;1.60;;
76053;SDS011;64752;48.870;9.082;2023-03-23T13:05:44;2.30;;;1.30;;
76053;SDS011;64752;48.870;9.082;2023-03-23T13:08:15;1.98;;;1.25;;
76053;SDS011;64752;48.870;9.082;2023-03-23T13:10:47;3.80;;;1.92;;
76053;SDS011;64752;48.870;9.082;2023-03-23T13:13:24;3.13;;;1.90;;
76053;SDS011;64752;48.870;9.082;2023-03-23T13:16:11;3.05;;;1.80;;
76053;SDS011;64752;48.870;9.082;2023-03-23T13:24:22;4.63;;;1.98;;
76053;SDS011;64752;48.870;9.082;2023-03-23T13:26:51;4.07;;;1.48;;
76053;SDS011;64752;48.870;9.082;2023-03-23T13:29:20;3.13;;;1.63;;
76053;SDS011;64752;48.870;9.082;2023-03-23T13:31:49;4.47;;;1.70;;
76053;SDS011;64752;48.870;9.082;2023-03-23T13:36:45;2.67;;;1.53;;
76053;SDS011;64752;48.870;9.082;2023-03-23T13:39:21;3.47;;;1.70;;
76053;SDS011;64752;48.870;9.082;2023-03-23T13:41:58;4.95;;;1.70;;
76053;SDS011;64752;48.870;9.082;2023-03-23T13:55:08;2.38;;;1.50;;
76053;SDS011;64752;48.870;9.082;2023-03-23T14:00:26;4.63;;;1.40;;
76053;SDS011;64752;48.870;9.082;2023-03-23T14:08:36;5.43;;;1.70;;
76053;SDS011;64752;48.870;9.082;2023-03-23T14:16:41;3.65;;;1.45;;
76053;SDS011;64752;48.870;9.082;2023-03-23T14:19:17;6.63;;;1.60;;
76053;SDS011;64752;48.870;9.082;2023-03-23T14:21:50;3.47;;;1.55;;
76053;SDS011;64752;48.870;9.082;2023-03-23T14:24:20;2.53;;;1.40;;
76053;SDS011;64752;48.870;9.082;2023-03-23T14:27:01;4.07;;;1.60;;
76053;SDS011;64752;48.870;9.082;2023-03-23T14:29:41;3.17;;;1.88;;
76053;SDS011;64752;48.870;9.082;2023-03-23T14:32:08;2.27;;;1.40;;
76053;SDS011;64752;48.870;9.082;2023-03-23T14:34:39;3.13;;;1.60;;
76053;SDS011;64752;48.870;9.082;2023-03-23T14:37:04;2.87;;;1.40;;
76053;SDS011;64752;48.870;9.082;2023-03-23T14:39:37;2.53;;;1.55;;
76053;SDS011;64752;48.870;9.082;2023-03-23T14:42:09;4.03;;;1.87;;
76053;SDS011;64752;48.870;9.082;2023-03-23T14:44:42;3.08;;;1.55;;
76053;SDS011;64752;48.870;9.082;2023-03-23T14:49:56;2.67;;;1.70;;
76053;SDS011;64752;48.870;9.082;2023-03-23T14:52:24;4.30;;;1.65;;
76053;SDS011;64752;48.870;9.082;2023-03-23T14:54:51;2.83;;;1.58;;
76053;SDS011;64752;48.870;9.082;2023-03-23T14:57:18;3.57;;;2.10;;
76053;SDS011;64752;48.870;9.082;2023-03-23T14:59:51;4.45;;;1.80;;
76053;SDS011;64752;48.870;9.082;2023-03-23T15:02:18;1.85;;;1.30;;
76053;SDS011;64752;48.870;9.082;2023-03-23T15:04:49;3.08;;;1.40;;
76053;SDS011;64752;48.870;9.082;2023-03-23T15:07:18;2.40;;;1.60;;
76053;SDS011;64752;48.870;9.082;2023-03-23T15:09:45;2.53;;;1.70;;
76053;SDS011;64752;48.870;9.082;2023-03-23T15:12:32;2.15;;;1.42;;
76053;SDS011;64752;48.870;9.082;2023-03-23T15:14:59;5.22;;;1.70;;
76053;SDS011;64752;48.870;9.082;2023-03-23T15:17:28;3.15;;;1.75;;
76053;SDS011;64752;48.870;9.082;2023-03-23T15:19:56;4.60;;;1.77;;
76053;SDS011;64752;48.870;9.082;2023-03-23T15:24:48;4.83;;;1.73;;
76053;SDS011;64752;48.870;9.082;2023-03-23T15:32:47;4.03;;;1.90;;
76053;SDS011;64752;48.870;9.082;2023-03-23T15:35:20;3.20;;;1.98;;
76053;SDS011;64752;48.870;9.082;2023-03-23T15:40:27;3.25;;;1.70;;
76053;SDS011;64752;48.870;9.082;2023-03-23T15:43:16;3.15;;;1.85;;
76053;SDS011;64752;48.870;9.082;2023-03-23T15:48:44;3.80;;;1.75;;
76053;SDS011;64752;48.870;9.082;2023-03-23T15:51:15;3.83;;;1.85;;
76053;SDS011;64752;48.870;9.082;2023-03-23T15:53:43;4.32;;;1.65;;
76053;SDS011;64752;48.870;9.082;2023-03-23T15:56:09;3.50;;;1.50;;
76053;SDS011;64752;48.870;9.082;2023-03-23T15:58:35;2.20;;;1.50;;
76053;SDS011;64752;48.870;9.082;2023-03-23T16:01:03;5.00;;;1.70;;
76053;SDS011;64752;48.870;9.082;2023-03-23T16:03:41;5.60;;;1.92;;
76053;SDS011;64752;48.870;9.082;2023-03-23T16:06:19;4.05;;;2.13;;
76053;SDS011;64752;48.870;9.082;2023-03-23T16:08:47;3.53;;;2.10;;
76053;SDS011;64752;48.870;9.082;2023-03-23T16:11:16;3.50;;;2.00;;
76053;SDS011;64752;48.870;9.082;2023-03-23T16:13:43;6.90;;;2.25;;
76053;SDS011;64752;48.870;9.082;2023-03-23T16:16:11;2.08;;;1.65;;
76053;SDS011;64752;48.870;9.082;2023-03-23T16:18:39;3.42;;;1.77;;
76053;SDS011;64752;48.870;9.082;2023-03-23T16:21:05;4.77;;;1.80;;
76053;SDS011;64752;48.870;9.082;2023-03-23T16:23:31;2.83;;;1.70;;
76053;SDS011;64752;48.870;9.082;2023-03-23T16:25:56;2.50;;;1.60;;
76053;SDS011;64752;48.870;9.082;2023-03-23T16:28:21;5.17;;;2.00;;
76053;SDS011;64752;48.870;9.082;2023-03-23T16:30:47;2.77;;;1.77;;
76053;SDS011;64752;48.870;9.082;2023-03-23T16:33:12;3.67;;;2.43;;
76053;SDS011;64752;48.870;9.082;2023-03-23T16:35:38;3.13;;;1.83;;
76053;SDS011;64752;48.870;9.082;2023-03-23T16:38:04;2.50;;;1.90;;
76053;SDS011;64752;48.870;9.082;2023-03-23T16:40:30;5.07;;;2.05;;
76053;SDS011;64752;48.870;9.082;2023-03-23T16:42:57;2.95;;;1.77;;
76053;SDS011;64752;48.870;9.082;2023-03-23T16:45:23;6.03;;;1.80;;
76053;SDS011;64752;48.870;9.082;2023-03-23T16:47:50;6.47;;;2.00;;
76053;SDS011;64752;48.870;9.082;2023-03-23T16:50:16;3.27;;;2.00;;
76053;SDS011;64752;48.870;9.082;2023-03-23T16:52:43;4.63;;;1.88;;
76053;SDS011;64752;48.870;9.082;2023-03-23T16:55:11;2.90;;;1.67;;
76053;SDS011;64752;48.870;9.082;2023-03-23T16:57:40;4.40;;;1.85;;
76053;SDS011;64752;48.870;9.082;2023-03-23T17:00:07;5.05;;;1.83;;
76053;SDS011;64752;48.870;9.082;2023-03-23T17:02:36;4.40;;;2.22;;
76053;SDS011;64752;48.870;9.082;2023-03-23T17:05:02;3.00;;;1.67;;
76053;SDS011;64752;48.870;9.082;2023-03-23T17:07:27;5.03;;;2.57;;
76053;SDS011;64752;48.870;9.082;2023-03-23T17:09:53;6.13;;;3.30;;
76053;SDS011;64752;48.870;9.082;2023-03-23T17:12:18;5.80;;;2.63;;
76053;SDS011;64752;48.870;9.082;2023-03-23T17:14:44;4.33;;;2.13;;
76053;SDS011;64752;48.870;9.082;2023-03-23T17:17:10;3.93;;;2.13;;
76053;SDS011;64752;48.870;9.082;2023-03-23T17:19:35;4.47;;;2.17;;
76053;SDS011;64752;48.870;9.082;2023-03-23T17:22:01;4.27;;;2.10;;
76053;SDS011;64752;48.870;9.082;2023-03-23T17:24:26;7.73;;;2.80;;
76053;SDS011;64752;48.870;9.082;2023-03-23T17:26:52;7.72;;;2.45;;
76053;SDS011;64752;48.870;9.082;2023-03-23T17:29:18;4.97;;;2.40;;
76053;SDS011;64752;48.870;9.082;2023-03-23T17:31:46;3.47;;;2.15;;
76053;SDS011;64752;48.870;9.082;2023-03-23T17:34:12;6.25;;;2.72;;
76053;SDS011;64752;48.870;9.082;2023-03-23T17:36:37;4.43;;;2.13;;
76053;SDS011;64752;48.870;9.082;2023-03-23T17:39:02;3.10;;;1.60;;
76053;SDS011;64752;48.870;9.082;2023-03-23T17:41:28;3.50;;;1.73;;
76053;SDS011;64752;48.870;9.082;2023-03-23T17:43:53;3.47;;;1.63;;